Time,TemperatureF,DewpointF,PressureIn,WindDirection,WindDirectionDegrees,WindSpeedMPH,WindSpeedGustMPH,Humidity,HourlyPrecipIn,Conditions,Clouds,dailyrainin,SoftwareType,DateUTC
2013-03-09 00:01:00,23.7,19.0,29.15,North,-999,0.0,-999.0,82,-99.99,,,-99.99,Acu-Link.com,2013-03-09 07:01:00,
2013-03-09 00:16:00,23.5,18.5,29.14,North,-999,0.0,-999.0,81,-99.99,,,-99.99,Acu-Link.com,2013-03-09 07:16:00,
2013-03-09 00:31:00,23.1,17.9,29.14,North,-999,1.6,-999.0,80,-99.99,,,-99.99,Acu-Link.com,2013-03-09 07:31:00,
2013-03-09 00:46:00,22.6,17.4,29.14,North,-999,0.0,-999.0,80,-99.99,,,-99.99,Acu-Link.com,2013-03-09 07:46:00,
2013-03-09 01:02:00,22.4,16.6,29.14,North,-999,0.0,-999.0,78,-99.99,,,-99.99,Acu-Link.com,2013-03-09 08:02:00,
2013-03-09 01:17:00,22.5,17.0,29.14,North,-999,1.6,-999.0,79,-99.99,,,-99.99,Acu-Link.com,2013-03-09 08:17:00,
2013-03-09 01:32:00,22.5,17.0,29.14,North,-999,0.0,-999.0,79,-99.99,,,-99.99,Acu-Link.com,2013-03-09 08:32:00,
2013-03-09 01:47:00,23.0,17.5,29.13,North,-999,1.6,-999.0,79,-99.99,,,-99.99,Acu-Link.com,2013-03-09 08:47:00,
2013-03-09 02:03:00,23.3,17.5,29.13,North,-999,1.6,-999.0,78,-99.99,,,-99.99,Acu-Link.com,2013-03-09 09:03:00,
2013-03-09 02:18:00,23.2,17.4,29.12,North,-999,0.0,-999.0,78,-99.99,,,-99.99,Acu-Link.com,2013-03-09 09:18:00,
2013-03-09 02:33:00,23.1,17.9,29.12,North,-999,1.6,-999.0,80,-99.99,,,-99.99,Acu-Link.com,2013-03-09 09:33:00,
2013-03-09 02:48:00,23.4,18.4,29.11,North,-999,1.6,-999.0,81,-99.99,,,-99.99,Acu-Link.com,2013-03-09 09:48:00,
2013-03-09 03:03:00,23.5,19.1,29.12,North,-999,1.6,-999.0,83,-99.99,,,-99.99,Acu-Link.com,2013-03-09 10:03:00,
2013-03-09 03:19:00,23.4,19.3,29.11,North,-999,0.0,-999.0,84,-99.99,,,-99.99,Acu-Link.com,2013-03-09 10:19:00,
2013-03-09 03:34:00,23.4,19.3,29.12,North,-999,4.8,-999.0,84,-99.99,,,-99.99,Acu-Link.com,2013-03-09 10:34:00,
2013-03-09 03:49:00,23.2,19.1,29.11,North,-999,0.0,-999.0,84,-99.99,,,-99.99,Acu-Link.com,2013-03-09 10:49:00,
2013-03-09 04:04:00,22.9,18.8,29.11,North,-999,1.6,-999.0,84,-99.99,,,-99.99,Acu-Link.com,2013-03-09 11:04:00,
2013-03-09 04:20:00,22.5,18.7,29.11,North,-999,1.6,-999.0,85,-99.99,,,-99.99,Acu-Link.com,2013-03-09 11:20:00,
2013-03-09 04:35:00,22.4,18.6,29.11,North,-999,0.0,-999.0,85,-99.99,,,-99.99,Acu-Link.com,2013-03-09 11:35:00,
2013-03-09 04:50:00,22.3,18.5,29.12,North,-999,3.2,-999.0,85,-99.99,,,-99.99,Acu-Link.com,2013-03-09 11:50:00,
2013-03-09 05:05:00,22.3,18.5,29.12,North,-999,3.2,-999.0,85,-99.99,,,-99.99,Acu-Link.com,2013-03-09 12:05:00,
2013-03-09 05:20:00,22.0,18.2,29.12,North,-999,4.8,-999.0,85,-99.99,,,-99.99,Acu-Link.com,2013-03-09 12:20:00,
2013-03-09 05:36:00,21.8,18.3,29.12,North,-999,1.6,-999.0,86,-99.99,,,-99.99,Acu-Link.com,2013-03-09 12:36:00,
2013-03-09 05:51:00,21.6,18.1,29.12,North,-999,1.6,-999.0,86,-99.99,,,-99.99,Acu-Link.com,2013-03-09 12:51:00,
2013-03-09 06:06:00,21.4,18.1,29.13,North,-999,0.0,-999.0,87,-99.99,,,-99.99,Acu-Link.com,2013-03-09 13:06:00,
2013-03-09 06:21:00,21.2,17.9,29.13,North,-999,0.0,-999.0,87,-99.99,,,-99.99,Acu-Link.com,2013-03-09 13:21:00,
2013-03-09 06:36:00,21.2,17.7,29.13,North,-999,0.0,-999.0,86,-99.99,,,-99.99,Acu-Link.com,2013-03-09 13:36:00,
2013-03-09 06:52:00,21.4,17.6,29.14,North,-999,0.0,-999.0,85,-99.99,,,-99.99,Acu-Link.com,2013-03-09 13:52:00,
2013-03-09 07:07:00,21.7,17.3,29.14,North,-999,0.0,-999.0,83,-99.99,,,-99.99,Acu-Link.com,2013-03-09 14:07:00,
2013-03-09 07:22:00,22.3,17.4,29.15,North,-999,0.0,-999.0,81,-99.99,,,-99.99,Acu-Link.com,2013-03-09 14:22:00,
2013-03-09 07:38:00,22.4,16.9,29.15,North,-999,0.0,-999.0,79,-99.99,,,-99.99,Acu-Link.com,2013-03-09 14:38:00,
2013-03-09 07:53:00,22.6,16.8,29.15,North,-999,0.0,-999.0,78,-99.99,,,-99.99,Acu-Link.com,2013-03-09 14:53:00,
2013-03-09 08:08:00,22.5,16.4,29.15,North,-999,1.6,-999.0,77,-99.99,,,-99.99,Acu-Link.com,2013-03-09 15:08:00,
2013-03-09 08:23:00,22.6,15.9,29.16,North,-999,0.0,-999.0,75,-99.99,,,-99.99,Acu-Link.com,2013-03-09 15:23:00,
2013-03-09 08:38:00,23.6,16.2,29.16,North,-999,0.0,-999.0,73,-99.99,,,-99.99,Acu-Link.com,2013-03-09 15:38:00,
2013-03-09 08:54:00,24.8,17.1,29.17,North,-999,1.6,-999.0,72,-99.99,,,-99.99,Acu-Link.com,2013-03-09 15:54:00,
2013-03-09 09:09:00,26.0,16.9,29.17,North,-999,3.2,-999.0,68,-99.99,,,-99.99,Acu-Link.com,2013-03-09 16:09:00,
2013-03-09 09:24:00,24.7,15.3,29.17,North,-999,3.2,-999.0,67,-99.99,,,-99.99,Acu-Link.com,2013-03-09 16:24:00,
2013-03-09 09:39:00,25.3,15.6,29.18,North,-999,8.0,-999.0,66,-99.99,,,-99.99,Acu-Link.com,2013-03-09 16:39:00,
2013-03-09 09:55:00,30.6,18.8,29.19,North,-999,1.6,-999.0,61,-99.99,,,-99.99,Acu-Link.com,2013-03-09 16:55:00,
2013-03-09 10:11:00,26.1,13.8,29.20,North,-999,4.8,-999.0,59,-99.99,,,-99.99,Acu-Link.com,2013-03-09 17:11:00,
2013-03-09 10:26:00,29.9,16.9,29.21,North,-999,4.8,-999.0,58,-99.99,,,-99.99,Acu-Link.com,2013-03-09 17:26:00,
2013-03-09 10:41:00,29.4,15.3,29.21,North,-999,6.4,-999.0,55,-99.99,,,-99.99,Acu-Link.com,2013-03-09 17:41:00,
2013-03-09 10:56:00,26.9,13.7,29.21,North,-999,6.4,-999.0,57,-99.99,,,-99.99,Acu-Link.com,2013-03-09 17:56:00,
2013-03-09 11:11:00,26.5,14.1,29.22,North,-999,4.8,-999.0,59,-99.99,,,-99.99,Acu-Link.com,2013-03-09 18:11:00,
2013-03-09 11:27:00,27.9,14.7,29.22,North,-999,3.2,-999.0,57,-99.99,,,-99.99,Acu-Link.com,2013-03-09 18:27:00,
2013-03-09 11:42:00,30.1,15.1,29.23,North,-999,6.4,-999.0,53,-99.99,,,-99.99,Acu-Link.com,2013-03-09 18:42:00,
2013-03-09 11:58:00,26.8,12.4,29.23,North,-999,4.8,-999.0,54,-99.99,,,-99.99,Acu-Link.com,2013-03-09 18:58:00,
2013-03-09 12:13:00,26.7,12.3,29.23,North,-999,6.4,-999.0,54,-99.99,,,-99.99,Acu-Link.com,2013-03-09 19:13:00,
2013-03-09 12:28:00,23.8,10.8,29.23,North,-999,3.2,-999.0,57,-99.99,,,-99.99,Acu-Link.com,2013-03-09 19:28:00,
2013-03-09 12:43:00,25.2,12.1,29.24,North,-999,4.8,-999.0,57,-99.99,,,-99.99,Acu-Link.com,2013-03-09 19:43:00,
2013-03-09 12:59:00,24.6,11.6,29.25,North,-999,4.8,-999.0,57,-99.99,,,-99.99,Acu-Link.com,2013-03-09 19:59:00,
2013-03-09 13:14:00,24.9,11.9,29.26,North,-999,1.6,-999.0,57,-99.99,,,-99.99,Acu-Link.com,2013-03-09 20:14:00,
2013-03-09 13:29:00,26.6,12.6,29.25,North,-999,6.4,-999.0,55,-99.99,,,-99.99,Acu-Link.com,2013-03-09 20:29:00,
2013-03-09 13:44:00,26.4,12.0,29.25,North,-999,9.6,-999.0,54,-99.99,,,-99.99,Acu-Link.com,2013-03-09 20:44:00,
2013-03-09 13:59:00,27.4,13.0,29.26,North,-999,8.0,-999.0,54,-99.99,,,-99.99,Acu-Link.com,2013-03-09 20:59:00,
2013-03-09 14:15:00,25.8,11.1,29.27,North,-999,9.6,-999.0,53,-99.99,,,-99.99,Acu-Link.com,2013-03-09 21:15:00,
2013-03-09 14:30:00,26.3,11.9,29.29,North,-999,6.4,-999.0,54,-99.99,,,-99.99,Acu-Link.com,2013-03-09 21:30:00,
2013-03-09 14:45:00,25.2,11.7,29.29,North,-999,4.8,-999.0,56,-99.99,,,-99.99,Acu-Link.com,2013-03-09 21:45:00,
2013-03-09 15:01:00,23.4,11.6,29.30,North,-999,3.2,-999.0,60,-99.99,,,-99.99,Acu-Link.com,2013-03-09 22:01:00,
2013-03-09 15:16:00,22.2,11.6,29.31,North,-999,6.4,-999.0,63,-99.99,,,-99.99,Acu-Link.com,2013-03-09 22:16:00,
2013-03-09 15:31:00,21.2,11.3,29.31,North,-999,6.4,-999.0,65,-99.99,,,-99.99,Acu-Link.com,2013-03-09 22:31:00,
2013-03-09 15:46:00,21.2,11.6,29.32,North,-999,3.2,-999.0,66,-99.99,,,-99.99,Acu-Link.com,2013-03-09 22:46:00,
2013-03-09 16:01:00,19.0,9.9,29.33,North,-999,3.2,-999.0,67,-99.99,,,-99.99,Acu-Link.com,2013-03-09 23:01:00,
2013-03-09 16:17:00,18.8,9.7,29.34,North,-999,3.2,-999.0,67,-99.99,,,-99.99,Acu-Link.com,2013-03-09 23:17:00,
2013-03-09 16:32:00,18.0,9.2,29.35,North,-999,3.2,-999.0,68,-99.99,,,-99.99,Acu-Link.com,2013-03-09 23:32:00,
2013-03-09 16:47:00,18.2,9.8,29.35,North,-999,0.0,-999.0,69,-99.99,,,-99.99,Acu-Link.com,2013-03-09 23:47:00,
2013-03-09 17:02:00,16.6,8.2,29.36,North,-999,1.6,-999.0,69,-99.99,,,-99.99,Acu-Link.com,2013-03-10 00:02:00,
2013-03-09 17:17:00,16.5,7.8,29.36,North,-999,4.8,-999.0,68,-99.99,,,-99.99,Acu-Link.com,2013-03-10 00:17:00,
2013-03-09 17:33:00,15.7,7.4,29.38,North,-999,1.6,-999.0,69,-99.99,,,-99.99,Acu-Link.com,2013-03-10 00:33:00,
2013-03-09 17:48:00,13.7,4.8,29.38,North,-999,0.0,-999.0,67,-99.99,,,-99.99,Acu-Link.com,2013-03-10 00:48:00,
2013-03-09 18:03:00,13.3,5.1,29.39,North,-999,0.0,-999.0,69,-99.99,,,-99.99,Acu-Link.com,2013-03-10 01:03:00,
2013-03-09 18:19:00,12.8,5.5,29.41,North,-999,0.0,-999.0,72,-99.99,,,-99.99,Acu-Link.com,2013-03-10 01:19:00,
2013-03-09 18:34:00,12.4,5.4,29.41,North,-999,1.6,-999.0,73,-99.99,,,-99.99,Acu-Link.com,2013-03-10 01:34:00,
2013-03-09 18:49:00,12.6,6.2,29.42,North,-999,3.2,-999.0,75,-99.99,,,-99.99,Acu-Link.com,2013-03-10 01:49:00,
2013-03-09 19:04:00,12.1,5.7,29.44,North,-999,3.2,-999.0,75,-99.99,,,-99.99,Acu-Link.com,2013-03-10 02:04:00,
2013-03-09 19:19:00,12.0,5.6,29.45,North,-999,0.0,-999.0,75,-99.99,,,-99.99,Acu-Link.com,2013-03-10 02:19:00,
2013-03-09 19:35:00,12.1,5.7,29.45,North,-999,1.6,-999.0,75,-99.99,,,-99.99,Acu-Link.com,2013-03-10 02:35:00,
2013-03-09 19:50:00,11.7,5.3,29.46,North,-999,1.6,-999.0,75,-99.99,,,-99.99,Acu-Link.com,2013-03-10 02:50:00,
2013-03-09 20:05:00,11.7,5.9,29.46,North,-999,0.0,-999.0,77,-99.99,,,-99.99,Acu-Link.com,2013-03-10 03:05:00,
2013-03-09 20:21:00,11.7,5.9,29.48,North,-999,1.6,-999.0,77,-99.99,,,-99.99,Acu-Link.com,2013-03-10 03:21:00,
2013-03-09 20:36:00,11.0,4.9,29.48,North,-999,0.0,-999.0,76,-99.99,,,-99.99,Acu-Link.com,2013-03-10 03:36:00,
2013-03-09 20:51:00,11.1,5.3,29.49,North,-999,0.0,-999.0,77,-99.99,,,-99.99,Acu-Link.com,2013-03-10 03:51:00,
2013-03-09 21:06:00,10.8,5.3,29.50,North,-999,0.0,-999.0,78,-99.99,,,-99.99,Acu-Link.com,2013-03-10 04:06:00,
2013-03-09 21:21:00,10.1,4.1,29.50,North,-999,0.0,-999.0,76,-99.99,,,-99.99,Acu-Link.com,2013-03-10 04:21:00,
2013-03-09 21:37:00,9.9,3.9,29.50,North,-999,0.0,-999.0,76,-99.99,,,-99.99,Acu-Link.com,2013-03-10 04:37:00,
2013-03-09 21:52:00,9.6,3.6,29.50,North,-999,1.6,-999.0,76,-99.99,,,-99.99,Acu-Link.com,2013-03-10 04:52:00,
2013-03-09 22:07:00,9.5,3.8,29.50,North,-999,0.0,-999.0,77,-99.99,,,-99.99,Acu-Link.com,2013-03-10 05:07:00,
2013-03-09 22:22:00,9.5,4.0,29.50,North,-999,0.0,-999.0,78,-99.99,,,-99.99,Acu-Link.com,2013-03-10 05:22:00,
2013-03-09 22:38:00,9.6,4.1,29.50,North,-999,0.0,-999.0,78,-99.99,,,-99.99,Acu-Link.com,2013-03-10 05:38:00,
2013-03-09 22:53:00,9.7,4.2,29.50,North,-999,0.0,-999.0,78,-99.99,,,-99.99,Acu-Link.com,2013-03-10 05:53:00,
2013-03-09 23:08:00,9.7,4.2,29.50,North,-999,0.0,-999.0,78,-99.99,,,-99.99,Acu-Link.com,2013-03-10 06:08:00,
2013-03-09 23:23:00,9.8,4.6,29.51,North,-999,0.0,-999.0,79,-99.99,,,-99.99,Acu-Link.com,2013-03-10 06:23:00,
2013-03-09 23:38:00,9.9,4.7,29.51,North,-999,0.0,-999.0,79,-99.99,,,-99.99,Acu-Link.com,2013-03-10 06:38:00,
2013-03-09 23:54:00,10.0,4.8,29.50,North,-999,0.0,-999.0,79,-99.99,,,-99.99,Acu-Link.com,2013-03-10 06:54:00,